Decoded Metar for KFZY (FULTON in NY, USA) (IATA:FZY) | Meteo·Mobile Aviation Weather
aviador You're here:

KFZY Decoded Metar

FULTON in NY, USA
Report Time2019-07-24 03:54:00
UTC Time2019-07-24 04:17:04
Flight Rules vfr VFR
Wind130° at 04 kt
W.Decomp.*RWY 15: 4.0 kt HW 0.5 kt LCW
RWY 06: 0.5 kt HW 4.0 kt RCW
Visibility9999 m
Phenomena:N/A
Clouds:Few 060 Hf
Expected CloudBase > 800 ft AGL from Temp-Dew spread
CeilingNone
Temp16°C (ISA +2)
Dew Point14°C (88% RH)
AAT15.8°C
QNH1014 hPa
Density Alt860 ft
Elevation453 ft
Report Wrong Elevation
Raw Report
KFZY 240354Z AUTO 13004KT 10SM FEW060 16/14 A2994 RMK AO2 SLP136
T01610139=

Extra information for KFZY:More info

Metar Taf Metar & Taf Last 4 Metars F.Rules Stats Wind Profile Meteogram Temp Stats Airport Information Weather charts Add Link Nearby VenuesMetar ALERT Operation Metar Decoded Social comments

AIRNAV info for KFZY